Time;durP1;ratioP1;P1;durP2;ratioP2;P2;SDS_P1;SDS_P2;PMS_P1;PMS_P2;Temp;Humidity;BMP_temperature;BMP_pressure;BME280_temperature;BME280_humidity;BME280_pressure;Samples;Min_cycle;Max_cycle;Signal;HPM_P1;HPM_P2
2022/12/14 00:00:55;;;;;;;23.95;11.82;;;-0.40;99.90;;;;;;5049606;28;20033;-73
2022/12/14 00:03:21;;;;;;;22.85;12.50;;;-0.40;99.90;;;;;;5046923;28;20047;-74
2022/12/14 00:05:47;;;;;;;28.35;13.77;;;-0.40;99.90;;;;;;5037744;28;20032;-73
2022/12/14 00:08:14;;;;;;;23.00;12.80;;;-0.40;99.90;;;;;;5047025;28;20033;-72
2022/12/14 00:10:41;;;;;;;23.48;12.75;;;-0.40;99.90;;;;;;5049187;28;20088;-74
2022/12/14 00:13:09;;;;;;;26.65;12.20;;;-0.40;99.90;;;;;;5048280;28;20025;-74
2022/12/14 00:15:37;;;;;;;27.73;11.57;;;-0.40;99.90;;;;;;5047707;28;20087;-73
2022/12/14 00:18:03;;;;;;;22.45;11.95;;;-0.40;99.90;;;;;;5048073;28;20108;-73
2022/12/14 00:20:29;;;;;;;23.55;11.80;;;-0.40;99.90;;;;;;5046804;28;20083;-73
2022/12/14 00:22:56;;;;;;;29.33;14.10;;;-0.50;99.90;;;;;;5047440;28;20377;-73
2022/12/14 00:25:22;;;;;;;26.02;13.57;;;-0.40;99.90;;;;;;5047084;28;20082;-73
2022/12/14 00:27:48;;;;;;;24.83;12.48;;;-0.40;99.90;;;;;;5048290;28;20013;-73
2022/12/14 00:30:16;;;;;;;23.50;12.48;;;-0.40;99.90;;;;;;5048559;28;20024;-73
2022/12/14 00:32:42;;;;;;;20.48;11.65;;;-0.40;99.90;;;;;;5045222;28;20075;-71
2022/12/14 00:35:10;;;;;;;23.25;12.25;;;-0.40;99.90;;;;;;5049517;28;20029;-72
2022/12/14 00:37:36;;;;;;;25.17;12.65;;;-0.40;99.90;;;;;;5049360;28;20040;-74
2022/12/14 00:40:05;;;;;;;23.90;12.95;;;-0.40;99.90;;;;;;5053081;28;20484;-73
2022/12/14 00:42:31;;;;;;;24.20;12.60;;;-0.40;99.90;;;;;;5049659;28;20036;-73
2022/12/14 00:44:57;;;;;;;23.98;12.20;;;-0.40;99.90;;;;;;5053073;28;20037;-72
2022/12/14 00:47:23;;;;;;;23.17;11.82;;;-0.40;99.90;;;;;;5051289;28;20035;-73
2022/12/14 00:49:49;;;;;;;21.38;12.32;;;-0.40;99.90;;;;;;5052029;28;20107;-74
2022/12/14 00:52:14;;;;;;;21.13;12.02;;;-0.40;99.90;;;;;;5049914;28;20029;-73
2022/12/14 00:54:41;;;;;;;25.27;12.57;;;-0.40;99.90;;;;;;5052518;28;20143;-73
2022/12/14 00:57:07;;;;;;;21.65;12.57;;;-0.40;99.90;;;;;;5052210;28;20037;-72
2022/12/14 00:59:32;;;;;;;24.15;12.10;;;-0.40;99.90;;;;;;5051284;28;20025;-71
2022/12/14 01:01:58;;;;;;;20.92;12.05;;;-0.40;99.90;;;;;;5049946;28;20491;-71
2022/12/14 01:04:25;;;;;;;21.65;11.65;;;-0.40;99.90;;;;;;5050940;28;20033;-73
2022/12/14 01:06:52;;;;;;;20.48;11.55;;;-0.40;99.90;;;;;;5051982;28;20113;-72
2022/12/14 01:09:19;;;;;;;24.13;11.50;;;-0.40;99.90;;;;;;5050881;28;20052;-73
2022/12/14 01:11:45;;;;;;;22.67;12.32;;;-0.40;99.90;;;;;;5050293;28;20377;-73
2022/12/14 01:14:12;;;;;;;19.98;11.13;;;-0.40;99.90;;;;;;5052412;28;20112;-73
2022/12/14 01:16:39;;;;;;;21.95;11.98;;;-0.40;99.90;;;;;;5049121;28;20025;-73
2022/12/14 01:19:05;;;;;;;26.17;11.52;;;-0.50;99.90;;;;;;5051484;28;20477;-73
2022/12/14 01:21:32;;;;;;;21.83;11.93;;;-0.40;99.90;;;;;;5055211;28;20152;-73
2022/12/14 01:24:00;;;;;;;21.92;11.65;;;-0.40;99.90;;;;;;5056039;28;20029;-73
2022/12/14 01:26:27;;;;;;;20.00;11.30;;;-0.40;99.90;;;;;;5055037;28;20123;-73
2022/12/14 01:28:56;;;;;;;19.55;11.48;;;-0.40;99.90;;;;;;5052444;28;20029;-73
2022/12/14 01:31:28;;;;;;;17.70;10.88;;;-0.40;99.90;;;;;;5057930;28;20107;-73
2022/12/14 01:33:54;;;;;;;16.70;10.45;;;-0.40;99.90;;;;;;5052312;28;20036;-72
2022/12/14 01:36:25;;;;;;;18.65;10.30;;;-0.40;99.90;;;;;;5056144;28;20032;-72
2022/12/14 01:38:53;;;;;;;21.25;11.15;;;-0.40;99.90;;;;;;5052104;28;20029;-72
2022/12/14 01:41:27;;;;;;;21.08;11.05;;;-0.30;99.90;;;;;;5054326;28;20043;-73
2022/12/14 01:44:02;;;;;;;19.65;9.98;;;-0.40;99.90;;;;;;5059812;28;20640;-72
2022/12/14 01:46:50;;;;;;;18.60;10.23;;;-0.30;99.90;;;;;;5055985;28;20107;-73
2022/12/14 01:49:47;;;;;;;19.98;10.50;;;-0.40;99.90;;;;;;5041142;28;20117;-72
2022/12/14 01:52:19;;;;;;;20.33;10.77;;;-0.40;99.90;;;;;;5052290;28;20389;-73
2022/12/14 01:55:22;;;;;;;17.23;10.18;;;-0.30;99.90;;;;;;5049405;28;20096;-73
2022/12/14 01:57:56;;;;;;;21.95;10.82;;;-0.40;99.90;;;;;;5049497;28;20025;-74
2022/12/14 02:00:22;;;;;;;20.08;10.27;;;-0.40;99.90;;;;;;5039146;28;20032;-73
2022/12/14 02:02:58;;;;;;;17.27;10.40;;;-0.30;99.90;;;;;;5050469;28;20086;-74
2022/12/14 02:05:24;;;;;;;22.17;10.93;;;-0.30;99.90;;;;;;5047969;28;20377;-73
2022/12/14 02:07:52;;;;;;;16.92;10.13;;;-0.40;99.90;;;;;;5051623;28;20523;-73
2022/12/14 02:10:21;;;;;;;21.63;10.75;;;-0.40;99.90;;;;;;5048390;28;20025;-72
2022/12/14 02:12:59;;;;;;;18.02;10.88;;;-0.40;99.90;;;;;;5049798;28;20021;-72
2022/12/14 02:15:24;;;;;;;20.88;10.85;;;-0.40;99.90;;;;;;5051834;28;20037;-73
2022/12/14 02:17:51;;;;;;;21.52;10.88;;;-0.40;99.90;;;;;;5065594;28;20142;-73
2022/12/14 02:20:17;;;;;;;22.75;10.57;;;-0.40;99.90;;;;;;5059650;28;20115;-73
2022/12/14 02:23:01;;;;;;;19.85;10.43;;;-0.50;99.90;;;;;;5061444;28;20045;-73
2022/12/14 02:25:51;;;;;;;19.40;10.20;;;-0.50;99.90;;;;;;5053694;28;20566;-72
2022/12/14 02:28:22;;;;;;;23.75;11.88;;;-0.40;99.90;;;;;;5049670;28;20035;-72
2022/12/14 02:30:56;;;;;;;13.33;7.07;;;-0.50;99.90;;;;;;5059375;28;20025;-73
2022/12/14 02:33:59;;;;;;;18.33;9.88;;;-0.50;99.90;;;;;;5047564;28;20777;-73
2022/12/14 02:36:56;;;;;;;19.02;10.50;;;-0.50;99.90;;;;;;5047238;28;20032;-73
2022/12/14 02:39:32;;;;;;;17.13;10.38;;;-0.50;99.90;;;;;;5047038;28;20037;-73
2022/12/14 02:42:12;;;;;;;20.75;10.77;;;-0.60;99.90;;;;;;5049632;28;20067;-73
2022/12/14 02:44:50;;;;;;;22.35;11.50;;;-0.60;99.90;;;;;;5045923;28;20098;-73
2022/12/14 02:47:53;;;;;;;20.58;11.20;;;-0.50;99.90;;;;;;5048022;28;20396;-73
2022/12/14 02:50:43;;;;;;;19.17;10.05;;;-0.50;99.90;;;;;;5040194;28;20040;-73
2022/12/14 02:53:55;;;;;;;18.95;11.15;;;-0.50;99.90;;;;;;5047221;28;20032;-74
2022/12/14 02:56:33;;;;;;;19.90;10.73;;;-0.40;99.90;;;;;;5047232;28;20041;-73
2022/12/14 02:59:01;;;;;;;19.27;11.15;;;-0.40;99.90;;;;;;5048919;28;20439;-73
2022/12/14 03:01:28;;;;;;;20.45;10.73;;;-0.40;99.90;;;;;;5047665;28;20040;-73
2022/12/14 03:03:54;;;;;;;19.58;10.18;;;-0.40;99.90;;;;;;5049517;28;20033;-73
2022/12/14 03:06:26;;;;;;;24.73;12.98;;;-0.40;99.90;;;;;;5047962;28;20115;-74
2022/12/14 03:09:02;;;;;;;19.50;10.70;;;-0.40;99.90;;;;;;5049852;28;20054;-73
2022/12/14 03:11:43;;;;;;;19.40;10.18;;;-0.40;99.90;;;;;;5043361;28;20136;-73
2022/12/14 03:14:24;;;;;;;20.23;9.98;;;-0.40;99.90;;;;;;5048486;28;20108;-74
2022/12/14 03:16:52;;;;;;;19.33;9.75;;;-0.40;99.90;;;;;;5048656;28;20021;-74
2022/12/14 03:19:21;;;;;;;20.85;9.88;;;-0.30;99.90;;;;;;5047172;28;20080;-73
2022/12/14 03:21:53;;;;;;;20.30;10.02;;;-0.30;99.90;;;;;;5049894;28;20488;-73
2022/12/14 03:24:24;;;;;;;17.33;9.85;;;-0.30;99.90;;;;;;5046881;28;20053;-73
2022/12/14 03:26:58;;;;;;;19.33;10.50;;;-0.30;99.90;;;;;;5049244;28;20056;-73
2022/12/14 03:29:30;;;;;;;20.40;10.95;;;-0.30;99.90;;;;;;5047152;28;20033;-72
2022/12/14 03:32:01;;;;;;;19.85;10.38;;;-0.20;99.90;;;;;;5049249;28;20025;-73
2022/12/14 03:34:43;;;;;;;22.02;11.75;;;-0.30;99.90;;;;;;5046860;28;20120;-73
2022/12/14 03:37:18;;;;;;;18.35;9.10;;;-0.30;99.90;;;;;;5048621;28;20484;-73
2022/12/14 03:39:45;;;;;;;19.08;9.57;;;-0.30;99.90;;;;;;5048233;28;20067;-73
2022/12/14 03:42:20;;;;;;;17.58;9.82;;;-0.30;99.90;;;;;;5049021;28;20082;-72
2022/12/14 03:45:03;;;;;;;17.55;10.15;;;-0.30;99.90;;;;;;5047981;28;20052;-73
2022/12/14 03:47:43;;;;;;;17.13;9.75;;;-0.30;99.90;;;;;;5046702;28;20069;-72
2022/12/14 03:50:18;;;;;;;16.30;10.70;;;-0.30;99.90;;;;;;5049195;28;20545;-73
2022/12/14 03:53:18;;;;;;;19.25;9.63;;;-0.40;99.90;;;;;;5047083;28;20029;-73
2022/12/14 03:56:03;;;;;;;20.75;10.50;;;-0.40;99.90;;;;;;5041099;28;20469;-73
2022/12/14 03:58:34;;;;;;;27.58;10.80;;;-0.50;99.90;;;;;;5038095;28;20025;-73
2022/12/14 04:01:09;;;;;;;22.05;10.82;;;-0.50;99.90;;;;;;5047961;28;20021;-73
2022/12/14 04:04:05;;;;;;;19.42;9.50;;;-0.50;99.90;;;;;;5047286;28;20408;-72
2022/12/14 04:06:47;;;;;;;26.08;12.65;;;-0.60;99.90;;;;;;5047033;28;20104;-73
2022/12/14 04:09:20;;;;;;;22.98;11.05;;;-0.70;99.90;;;;;;5049191;28;20029;-73
2022/12/14 04:20:52;;;;;;;21.20;11.10;;;-1.00;99.90;;;;;;5041248;28;20051;-74
2022/12/14 04:26:15;;;;;;;19.98;10.18;;;-1.00;99.90;;;;;;5044971;28;20032;-73
2022/12/14 04:31:33;;;;;;;24.23;11.13;;;-1.10;99.90;;;;;;5046059;28;20072;-74
2022/12/14 04:34:02;;;;;;;22.17;11.73;;;-1.10;99.90;;;;;;5049018;28;20025;-74
2022/12/14 04:36:35;;;;;;;18.50;11.63;;;-1.10;99.90;;;;;;5045811;28;20029;-74
2022/12/14 04:39:05;;;;;;;20.77;11.95;;;-1.10;99.90;;;;;;5052730;28;20055;-74
2022/12/14 04:41:36;;;;;;;21.77;12.07;;;-1.20;99.90;;;;;;5046820;28;20097;-73
2022/12/14 04:44:08;;;;;;;20.57;11.17;;;-1.20;99.90;;;;;;5048909;28;20146;-74
2022/12/14 04:46:38;;;;;;;20.05;10.88;;;-1.20;99.90;;;;;;5046523;28;20040;-73
2022/12/14 04:49:21;;;;;;;19.98;11.25;;;-1.20;99.90;;;;;;5048969;28;20024;-72
2022/12/14 04:52:14;;;;;;;20.63;11.55;;;-1.20;99.90;;;;;;5036266;28;20498;-74
2022/12/14 04:54:44;;;;;;;23.17;12.68;;;-1.20;99.90;;;;;;5062171;28;20124;-72
2022/12/14 04:57:23;;;;;;;19.23;10.38;;;-1.20;99.90;;;;;;5046726;28;20055;-73
2022/12/14 04:59:49;;;;;;;22.65;12.50;;;-1.20;99.90;;;;;;5048286;28;20024;-74
2022/12/14 05:02:42;;;;;;;24.98;12.43;;;-1.20;99.90;;;;;;5047095;28;20033;-74
2022/12/14 05:05:23;;;;;;;25.25;11.77;;;-1.10;99.90;;;;;;5044762;28;20396;-73
2022/12/14 05:07:52;;;;;;;20.33;11.55;;;-1.00;99.90;;;;;;5048617;28;20036;-74
2022/12/14 05:10:35;;;;;;;23.77;12.18;;;-0.90;99.90;;;;;;5046343;28;20039;-74
2022/12/14 05:13:25;;;;;;;24.17;12.05;;;-0.90;99.90;;;;;;5047411;28;20028;-72
2022/12/14 05:15:56;;;;;;;25.13;12.05;;;-0.90;99.90;;;;;;5048253;28;20064;-73
2022/12/14 05:18:22;;;;;;;23.30;12.40;;;-0.80;99.90;;;;;;5046410;28;20056;-74
2022/12/14 05:20:48;;;;;;;22.73;12.02;;;-0.90;99.90;;;;;;5048674;28;20091;-73
2022/12/14 05:23:15;;;;;;;19.83;11.48;;;-0.80;99.90;;;;;;5049398;28;20107;-73
2022/12/14 05:25:41;;;;;;;20.73;11.90;;;-0.80;99.90;;;;;;5052167;28;20025;-73
2022/12/14 05:28:08;;;;;;;25.08;12.13;;;-0.80;99.90;;;;;;5051608;28;20047;-73
2022/12/14 05:30:34;;;;;;;22.25;11.48;;;-0.90;99.90;;;;;;5050181;28;20067;-72
2022/12/14 05:33:00;;;;;;;19.25;11.10;;;-0.80;99.90;;;;;;5050766;28;20068;-74
2022/12/14 05:35:25;;;;;;;20.75;10.85;;;-0.80;99.90;;;;;;5050214;28;20029;-75
2022/12/14 05:37:51;;;;;;;24.55;13.23;;;-0.80;99.90;;;;;;5051587;28;20430;-73
2022/12/14 05:40:17;;;;;;;22.23;12.32;;;-0.80;99.90;;;;;;5049928;28;20063;-72
2022/12/14 05:42:43;;;;;;;27.17;13.10;;;-0.80;99.90;;;;;;5047538;28;20040;-73
2022/12/14 05:45:11;;;;;;;19.52;10.52;;;-0.80;99.90;;;;;;5051927;28;20083;-74
2022/12/14 05:47:38;;;;;;;21.23;11.75;;;-0.90;99.90;;;;;;5049611;28;20143;-74
2022/12/14 05:50:05;;;;;;;24.58;11.80;;;-0.80;99.90;;;;;;5051657;28;20103;-74
2022/12/14 05:52:30;;;;;;;28.08;15.93;;;-0.80;99.90;;;;;;5048678;28;20025;-72
2022/12/14 05:54:56;;;;;;;22.35;11.50;;;-0.80;99.90;;;;;;5047172;28;20070;-73
2022/12/14 05:57:22;;;;;;;23.08;10.85;;;-0.80;99.90;;;;;;5048424;28;20116;-72
2022/12/14 05:59:47;;;;;;;21.60;11.20;;;-0.80;99.90;;;;;;5051334;28;20032;-73
2022/12/14 06:02:13;;;;;;;23.27;11.50;;;-0.70;99.90;;;;;;5052345;28;20037;-73
2022/12/14 06:04:39;;;;;;;25.48;12.02;;;-0.80;99.90;;;;;;5050663;28;20044;-74
2022/12/14 06:07:07;;;;;;;24.85;11.63;;;-0.70;99.90;;;;;;5064149;28;20059;-73
2022/12/14 06:09:33;;;;;;;20.23;11.65;;;-0.80;99.90;;;;;;5055195;28;20032;-72
2022/12/14 06:11:58;;;;;;;23.25;12.38;;;-0.70;99.90;;;;;;5050113;28;20033;-74
2022/12/14 06:14:24;;;;;;;21.02;10.82;;;-0.80;99.90;;;;;;5048442;28;20372;-74
2022/12/14 06:16:50;;;;;;;19.73;10.32;;;-0.70;99.90;;;;;;5055360;28;20021;-73
2022/12/14 06:19:15;;;;;;;21.77;12.25;;;-0.80;99.90;;;;;;5061790;28;20035;-70
2022/12/14 06:21:42;;;;;;;19.25;11.15;;;-0.80;99.90;;;;;;5050837;28;20029;-73
2022/12/14 06:24:11;;;;;;;23.63;10.68;;;-0.90;99.90;;;;;;5058518;28;20515;-73
2022/12/14 06:26:39;;;;;;;19.55;10.60;;;-0.90;99.90;;;;;;5054899;28;20116;-73
2022/12/14 06:29:06;;;;;;;21.38;11.25;;;-0.90;99.90;;;;;;5062233;28;20058;-74
2022/12/14 06:31:32;;;;;;;21.40;10.40;;;-1.00;99.90;;;;;;5046676;28;20095;-74
2022/12/14 06:34:00;;;;;;;20.17;10.43;;;-1.00;99.90;;;;;;5059193;28;20012;-73
2022/12/14 06:36:32;;;;;;;19.40;10.23;;;-1.00;99.90;;;;;;5049465;28;20025;-73
2022/12/14 06:39:10;;;;;;;22.25;11.50;;;-1.00;99.90;;;;;;5053832;28;20456;-73
2022/12/14 06:41:36;;;;;;;20.42;11.73;;;-1.00;99.90;;;;;;5046432;28;20048;-73
2022/12/14 06:44:07;;;;;;;20.75;10.95;;;-1.10;99.90;;;;;;5043511;28;20037;-73
2022/12/14 06:46:33;;;;;;;19.42;11.10;;;-1.10;99.90;;;;;;5054614;28;20032;-74
2022/12/14 06:48:59;;;;;;;21.77;11.35;;;-1.10;99.90;;;;;;5045401;28;20071;-73
2022/12/14 06:51:25;;;;;;;26.08;12.05;;;-1.20;99.90;;;;;;5048212;28;20511;-73
2022/12/14 06:53:52;;;;;;;20.38;11.35;;;-1.20;99.90;;;;;;5050397;28;20033;-74
2022/12/14 06:56:19;;;;;;;20.48;10.85;;;-1.20;99.90;;;;;;5050263;28;20043;-72
2022/12/14 06:58:45;;;;;;;18.65;11.43;;;-1.20;99.90;;;;;;5054051;28;20108;-73
2022/12/14 07:01:14;;;;;;;22.67;11.25;;;-1.30;99.90;;;;;;5050302;28;20725;-73
2022/12/14 07:03:40;;;;;;;23.67;11.38;;;-1.40;99.90;;;;;;5048559;28;20033;-72
2022/12/14 07:06:06;;;;;;;19.52;10.95;;;-1.30;99.90;;;;;;5051699;28;20025;-74
2022/12/14 07:08:34;;;;;;;23.63;13.02;;;-1.30;99.90;;;;;;5046180;28;20037;-74
2022/12/14 07:11:06;;;;;;;21.48;11.40;;;-1.30;99.90;;;;;;5057812;28;20107;-74
2022/12/14 07:13:31;;;;;;;23.02;11.07;;;-1.30;99.90;;;;;;5048840;28;20021;-73
2022/12/14 07:15:58;;;;;;;23.80;10.52;;;-1.30;99.90;;;;;;5050299;28;20373;-72
2022/12/14 07:18:25;;;;;;;19.60;11.25;;;-1.20;99.90;;;;;;5051054;28;20405;-72
2022/12/14 07:21:04;;;;;;;19.88;10.50;;;-1.20;99.90;;;;;;5050202;28;20094;-71
2022/12/14 07:23:32;;;;;;;20.67;10.45;;;-1.10;99.90;;;;;;5051708;28;20056;-72
2022/12/14 07:26:03;;;;;;;22.10;11.15;;;-1.20;99.90;;;;;;5056183;28;20033;-69
2022/12/14 07:28:29;;;;;;;20.63;10.73;;;-1.20;99.90;;;;;;5059815;28;20115;-72
2022/12/14 07:30:56;;;;;;;21.42;11.50;;;-1.30;99.90;;;;;;5057026;28;20138;-71
2022/12/14 07:33:23;;;;;;;19.92;11.15;;;-1.30;99.90;;;;;;5047213;28;20495;-70
2022/12/14 07:35:49;;;;;;;27.15;11.68;;;-1.30;99.90;;;;;;5052967;28;20502;-72
2022/12/14 07:38:16;;;;;;;20.00;11.25;;;-1.30;99.90;;;;;;5049522;28;20033;-72
2022/12/14 07:40:42;;;;;;;20.10;11.85;;;-1.30;99.90;;;;;;5051619;28;20028;-71
2022/12/14 07:43:08;;;;;;;22.67;12.07;;;-1.30;99.90;;;;;;5049170;28;20064;-71
2022/12/14 07:45:33;;;;;;;18.75;10.77;;;-1.40;99.90;;;;;;5041576;28;20045;-72
2022/12/14 07:47:59;;;;;;;17.50;10.73;;;-1.40;99.90;;;;;;5052030;28;20041;-73
2022/12/14 07:50:25;;;;;;;20.63;10.93;;;-1.40;99.90;;;;;;5051995;28;20025;-73
2022/12/14 07:52:50;;;;;;;19.73;10.57;;;-1.40;99.90;;;;;;5049046;28;20472;-73
2022/12/14 07:55:16;;;;;;;19.70;11.23;;;-1.40;99.90;;;;;;5050034;28;20040;-72
2022/12/14 07:57:42;;;;;;;18.15;10.25;;;-1.50;99.90;;;;;;5049848;28;20127;-72
2022/12/14 08:00:08;;;;;;;21.52;11.32;;;-1.50;99.90;;;;;;5052193;28;20036;-72
2022/12/14 08:02:34;;;;;;;19.55;10.88;;;-1.50;99.90;;;;;;5039262;28;20040;-72
2022/12/14 08:05:00;;;;;;;21.42;11.43;;;-1.50;99.90;;;;;;5042734;28;20021;-73
2022/12/14 08:07:28;;;;;;;20.25;10.88;;;-1.50;99.90;;;;;;5050785;28;20084;-73
2022/12/14 08:09:54;;;;;;;19.70;11.32;;;-1.50;99.90;;;;;;5044791;28;20032;-72
2022/12/14 08:12:20;;;;;;;22.38;10.82;;;-1.50;99.90;;;;;;5045945;28;20021;-72
2022/12/14 08:14:47;;;;;;;17.52;9.60;;;-1.50;99.90;;;;;;5049682;28;20412;-71
2022/12/14 08:17:12;;;;;;;20.35;11.20;;;-1.50;99.90;;;;;;5049013;28;20028;-72
2022/12/14 08:19:38;;;;;;;21.02;11.48;;;-1.50;99.90;;;;;;5046124;28;20025;-73
2022/12/14 08:22:04;;;;;;;19.23;10.55;;;-1.50;99.90;;;;;;5047344;28;20040;-72
2022/12/14 08:24:29;;;;;;;22.63;11.32;;;-1.40;99.90;;;;;;5044825;28;20036;-71
2022/12/14 08:26:55;;;;;;;19.80;10.45;;;-1.40;99.90;;;;;;5042224;28;20077;-70
2022/12/14 08:29:21;;;;;;;22.30;11.18;;;-1.40;99.90;;;;;;5046695;28;20056;-73
2022/12/14 08:31:47;;;;;;;21.35;11.25;;;-1.40;99.90;;;;;;5048217;28;20037;-75
2022/12/14 08:34:14;;;;;;;24.27;12.52;;;-1.40;99.90;;;;;;5051486;28;20104;-75
2022/12/14 08:36:40;;;;;;;21.80;12.32;;;-1.30;99.90;;;;;;5050225;28;20036;-72
2022/12/14 08:39:09;;;;;;;20.02;12.48;;;-1.30;99.90;;;;;;5048269;28;20025;-73
2022/12/14 08:41:35;;;;;;;26.25;14.93;;;-1.30;99.90;;;;;;5048103;28;20083;-73
2022/12/14 08:44:02;;;;;;;25.45;15.40;;;-1.30;99.90;;;;;;5045470;28;20484;-72
2022/12/14 08:46:30;;;;;;;19.02;11.68;;;-1.40;99.90;;;;;;5043918;28;20119;-73
2022/12/14 08:48:57;;;;;;;22.95;10.35;;;-1.30;99.90;;;;;;5049115;28;20439;-72
2022/12/14 08:51:24;;;;;;;17.20;10.63;;;-1.40;99.90;;;;;;5046094;28;20025;-72
2022/12/14 08:53:52;;;;;;;15.68;10.32;;;-1.30;99.90;;;;;;5049552;28;20488;-75
2022/12/14 08:56:20;;;;;;;20.25;10.38;;;-1.30;99.90;;;;;;5048365;28;20067;-73
2022/12/14 08:58:47;;;;;;;20.23;12.73;;;-1.30;99.90;;;;;;5056227;28;20091;-72
2022/12/14 09:01:16;;;;;;;21.73;12.30;;;-1.20;99.90;;;;;;5045966;28;20036;-73
2022/12/14 09:03:46;;;;;;;24.23;15.02;;;-1.20;99.90;;;;;;5047678;28;20029;-73
2022/12/14 09:06:14;;;;;;;23.42;11.38;;;-1.20;99.90;;;;;;5056092;28;20036;-71
2022/12/14 09:08:40;;;;;;;27.65;18.20;;;-1.20;99.90;;;;;;5049076;28;20017;-74
2022/12/14 09:11:11;;;;;;;17.05;10.85;;;-1.10;99.90;;;;;;5049169;28;20370;-72
2022/12/14 09:13:37;;;;;;;21.63;10.68;;;-1.10;99.90;;;;;;5048908;28;20661;-73
2022/12/14 09:16:06;;;;;;;19.13;11.57;;;-1.10;99.90;;;;;;5066153;28;20056;-73
2022/12/14 09:18:33;;;;;;;19.85;10.55;;;-1.10;99.90;;;;;;5051801;28;20020;-73
2022/12/14 09:20:59;;;;;;;20.75;10.95;;;-1.10;99.90;;;;;;5053390;28;20025;-73
2022/12/14 09:23:27;;;;;;;23.35;12.10;;;-1.10;99.90;;;;;;5048040;28;20043;-73
2022/12/14 09:26:01;;;;;;;20.48;10.90;;;-1.10;99.90;;;;;;5051250;28;20039;-73
2022/12/14 09:28:28;;;;;;;21.38;11.88;;;-1.10;99.90;;;;;;5048144;28;20551;-72
2022/12/14 09:30:59;;;;;;;24.45;13.88;;;-1.00;99.90;;;;;;5048998;28;20333;-72
2022/12/14 09:33:26;;;;;;;20.57;10.97;;;-1.00;99.90;;;;;;5045950;28;20112;-73
2022/12/14 09:35:52;;;;;;;18.65;11.27;;;-1.10;99.90;;;;;;5055651;28;20273;-73
2022/12/14 09:38:20;;;;;;;21.23;10.90;;;-1.00;99.90;;;;;;5048153;28;20090;-73
2022/12/14 09:40:55;;;;;;;20.27;11.27;;;-0.90;99.90;;;;;;5049683;28;20056;-73
2022/12/14 09:43:28;;;;;;;22.05;11.30;;;-0.90;99.90;;;;;;5044413;28;20041;-74
2022/12/14 09:46:02;;;;;;;20.52;11.07;;;-0.80;99.90;;;;;;5046034;28;20069;-73
2022/12/14 09:48:27;;;;;;;19.95;10.80;;;-0.70;99.90;;;;;;5045839;28;20166;-73
2022/12/14 09:50:53;;;;;;;21.27;10.70;;;-0.70;99.90;;;;;;5051250;28;20043;-73
2022/12/14 09:53:21;;;;;;;22.17;11.10;;;-0.70;99.90;;;;;;5048808;28;20028;-72
2022/12/14 09:55:51;;;;;;;24.00;13.98;;;-0.60;99.90;;;;;;5040035;28;20036;-74
2022/12/14 09:58:29;;;;;;;24.27;13.45;;;-0.60;99.90;;;;;;5047669;28;20384;-72
2022/12/14 10:01:20;;;;;;;22.83;12.48;;;-0.50;99.90;;;;;;5044377;28;20029;-73
2022/12/14 10:04:11;;;;;;;29.98;16.27;;;-0.50;99.90;;;;;;5043873;28;20124;-73
2022/12/14 10:06:55;;;;;;;23.13;12.73;;;-0.40;99.90;;;;;;5048706;28;20120;-73
2022/12/14 10:09:32;;;;;;;24.00;12.90;;;-0.40;99.90;;;;;;5046833;28;20463;-72
2022/12/14 10:12:23;;;;;;;21.67;12.13;;;-0.40;99.90;;;;;;5043448;28;20060;-71
2022/12/14 10:15:23;;;;;;;24.77;13.25;;;-0.30;99.90;;;;;;5042552;28;20083;-71
2022/12/14 10:18:02;;;;;;;23.38;12.10;;;-0.30;99.90;;;;;;5006158;28;20079;-71
2022/12/14 10:20:49;;;;;;;23.02;11.70;;;-0.20;99.90;;;;;;5010656;28;20048;-71
2022/12/14 10:23:20;;;;;;;21.50;10.93;;;-0.20;99.90;;;;;;5008801;28;20045;-72
2022/12/14 10:25:49;;;;;;;20.95;11.52;;;-0.20;99.90;;;;;;5004033;28;20026;-72
2022/12/14 10:28:28;;;;;;;23.85;12.00;;;-0.20;99.90;;;;;;5008202;28;20503;-72
2022/12/14 10:30:58;;;;;;;23.95;12.38;;;-0.10;99.90;;;;;;5001861;28;20516;-71
2022/12/14 10:33:29;;;;;;;23.05;10.88;;;0.00;99.90;;;;;;5006299;28;20033;-71
2022/12/14 10:35:55;;;;;;;22.95;12.10;;;0.10;99.90;;;;;;5006234;28;20415;-72
2022/12/14 10:38:49;;;;;;;20.75;12.48;;;0.20;99.90;;;;;;5010206;28;20075;-72
2022/12/14 10:41:20;;;;;;;23.00;11.77;;;0.30;99.90;;;;;;5015440;28;20477;-72
2022/12/14 10:44:12;;;;;;;18.80;10.85;;;0.40;99.90;;;;;;5009777;28;20074;-71
2022/12/14 10:46:49;;;;;;;20.02;10.85;;;0.50;99.90;;;;;;5001217;28;20413;-71
2022/12/14 10:49:38;;;;;;;21.65;11.02;;;0.70;99.90;;;;;;5009605;28;20034;-72
2022/12/14 10:52:15;;;;;;;19.92;11.38;;;0.70;99.90;;;;;;5006522;28;20045;-72
2022/12/14 10:54:59;;;;;;;20.92;10.70;;;0.80;99.90;;;;;;5060309;28;20029;-71
2022/12/14 10:57:26;;;;;;;21.92;12.05;;;0.90;99.90;;;;;;5044704;28;20490;-72
2022/12/14 10:59:53;;;;;;;21.73;11.50;;;0.90;99.90;;;;;;5045794;28;20496;-70
2022/12/14 11:02:21;;;;;;;25.70;13.07;;;1.00;99.90;;;;;;5046787;28;20033;-73
2022/12/14 11:05:31;;;;;;;25.30;11.23;;;1.10;99.90;;;;;;5044112;28;20017;-73
2022/12/14 11:07:57;;;;;;;21.02;11.20;;;1.20;99.90;;;;;;5036505;28;20121;-71
2022/12/14 11:10:24;;;;;;;21.05;11.55;;;1.20;99.90;;;;;;5047350;28;20104;-67
2022/12/14 11:13:06;;;;;;;16.65;9.60;;;1.20;99.90;;;;;;5037180;28;20029;-71
2022/12/14 11:15:36;;;;;;;21.23;10.68;;;1.30;99.90;;;;;;5047021;28;20048;-73
2022/12/14 11:18:04;;;;;;;23.77;10.32;;;1.40;99.90;;;;;;5048292;28;20025;-73
2022/12/14 11:20:31;;;;;;;16.50;9.85;;;1.50;99.90;;;;;;5045492;28;20554;-71
2022/12/14 11:23:07;;;;;;;18.88;9.68;;;1.80;99.90;;;;;;5048837;28;20044;-73
2022/12/14 11:25:42;;;;;;;18.38;10.55;;;1.90;99.90;;;;;;5047118;28;20496;-73
2022/12/14 11:28:21;;;;;;;20.38;10.05;;;2.10;99.90;;;;;;5034595;28;20388;-71
2022/12/14 11:30:53;;;;;;;15.65;8.45;;;2.20;99.90;;;;;;5041720;28;20052;-72
2022/12/14 11:33:20;;;;;;;16.30;8.38;;;2.10;99.90;;;;;;5046587;28;20106;-71
2022/12/14 11:35:51;;;;;;;14.73;9.00;;;2.40;99.90;;;;;;5041602;28;20024;-73
2022/12/14 11:38:18;;;;;;;20.55;11.95;;;2.60;99.90;;;;;;5045692;28;20017;-72
2022/12/14 11:40:44;;;;;;;17.88;9.70;;;2.90;99.90;;;;;;5047082;28;20033;-72
2022/12/14 11:43:22;;;;;;;17.95;8.70;;;3.20;99.90;;;;;;5047848;28;20037;-72
2022/12/14 11:45:54;;;;;;;18.13;8.80;;;3.40;99.90;;;;;;5047034;28;20061;-71
2022/12/14 11:48:23;;;;;;;16.23;8.68;;;4.00;99.90;;;;;;5046753;28;20480;-73
2022/12/14 11:50:51;;;;;;;16.48;9.10;;;4.30;99.90;;;;;;5047698;28;20035;-72
2022/12/14 11:53:20;;;;;;;16.52;8.02;;;4.70;99.90;;;;;;5047056;28;20025;-72
2022/12/14 11:55:56;;;;;;;18.98;10.73;;;4.70;99.90;;;;;;5047571;28;20498;-71
2022/12/14 11:58:32;;;;;;;17.48;10.18;;;4.90;99.90;;;;;;5042387;28;20059;-71
2022/12/14 12:01:11;;;;;;;19.02;10.68;;;5.00;99.90;;;;;;5047875;28;20029;-71
2022/12/14 12:03:49;;;;;;;18.65;10.38;;;5.10;99.90;;;;;;5036426;28;20259;-72
2022/12/14 12:06:24;;;;;;;18.55;9.73;;;5.00;99.90;;;;;;5038628;28;20019;-71
2022/12/14 12:09:36;;;;;;;14.57;8.23;;;5.10;99.90;;;;;;5042710;28;20382;-71
2022/12/14 12:12:02;;;;;;;15.43;7.88;;;5.10;99.90;;;;;;5038710;28;20033;-72
2022/12/14 12:14:38;;;;;;;15.02;7.57;;;5.40;99.90;;;;;;5044035;28;20028;-72
2022/12/14 12:17:25;;;;;;;15.00;7.45;;;5.50;99.90;;;;;;5044345;28;20125;-73
2022/12/14 12:19:51;;;;;;;12.85;7.72;;;5.60;99.90;;;;;;5044226;28;20029;-73
2022/12/14 12:22:19;;;;;;;15.40;8.55;;;5.80;99.90;;;;;;5042678;28;20048;-67
2022/12/14 12:24:55;;;;;;;15.77;7.63;;;6.00;99.90;;;;;;5045558;28;20025;-72
2022/12/14 12:27:22;;;;;;;16.05;7.65;;;6.10;99.90;;;;;;5042077;28;20349;-71
2022/12/14 12:29:54;;;;;;;14.45;8.18;;;5.80;99.90;;;;;;5039198;28;20021;-72
2022/12/14 12:32:38;;;;;;;14.73;7.75;;;5.50;99.90;;;;;;5045617;28;20028;-72
2022/12/14 12:35:07;;;;;;;17.98;8.73;;;5.20;99.90;;;;;;5050559;28;20028;-71
2022/12/14 12:37:40;;;;;;;15.63;7.72;;;5.00;99.90;;;;;;5048101;28;20040;-72
2022/12/14 12:40:30;;;;;;;20.92;9.18;;;4.70;99.90;;;;;;5049542;28;20512;-72
2022/12/14 12:43:22;;;;;;;19.95;8.77;;;4.40;99.90;;;;;;5049797;28;20037;-72
2022/12/14 12:45:57;;;;;;;15.88;7.60;;;4.30;99.90;;;;;;5051895;28;20102;-72
2022/12/14 12:48:42;;;;;;;17.75;7.45;;;4.30;99.90;;;;;;5050311;28;20033;-72
2022/12/14 12:51:33;;;;;;;17.23;7.68;;;4.20;99.90;;;;;;5046087;28;20072;-72
2022/12/14 12:54:19;;;;;;;14.90;7.50;;;4.30;99.90;;;;;;5046939;28;20064;-72
2022/12/14 12:56:48;;;;;;;13.82;7.05;;;4.50;99.90;;;;;;5052069;28;20422;-73
2022/12/14 12:59:23;;;;;;;16.42;6.97;;;4.80;99.90;;;;;;5050219;28;20432;-72
2022/12/14 13:01:51;;;;;;;16.88;7.55;;;5.20;99.90;;;;;;5050630;28;20033;-73
2022/12/14 13:04:35;;;;;;;15.57;7.60;;;5.50;99.90;;;;;;5043524;28;20075;-73
2022/12/14 13:07:30;;;;;;;15.82;6.75;;;5.90;99.90;;;;;;5047738;28;20032;-73
2022/12/14 13:10:05;;;;;;;15.90;6.45;;;6.00;99.90;;;;;;5050979;28;20027;-72